createdAt,value
2019-02-18T00:00:07.493Z,26.67
2019-02-18T00:02:44.994Z,28.93
2019-02-18T00:05:22.605Z,28.13
2019-02-18T00:08:00.101Z,26.70
2019-02-18T00:10:37.569Z,28.37
2019-02-18T00:13:15.095Z,29.03
2019-02-18T00:15:58.107Z,27.03
2019-02-18T00:18:35.608Z,26.77
2019-02-18T00:21:13.110Z,25.63
2019-02-18T00:23:50.596Z,23.37
2019-02-18T00:26:34.640Z,25.03
2019-02-18T00:29:12.155Z,30.20
2019-02-18T00:31:49.669Z,26.57
2019-02-18T00:34:27.156Z,36.17
2019-02-18T00:37:07.783Z,25.97
2019-02-18T00:39:45.277Z,23.33
2019-02-18T00:42:25.478Z,26.73
2019-02-18T00:45:06.301Z,27.60
2019-02-18T00:47:43.862Z,26.10
2019-02-18T00:50:21.352Z,28.90
2019-02-18T00:52:58.852Z,31.17
2019-02-18T00:55:41.561Z,34.83
2019-02-18T00:58:19.073Z,30.70
2019-02-18T01:00:56.542Z,30.17
2019-02-18T01:03:34.048Z,30.83
2019-02-18T01:06:11.631Z,30.80
2019-02-18T01:08:49.141Z,27.50
2019-02-18T01:11:26.615Z,26.17
2019-02-18T01:14:04.111Z,29.93
2019-02-18T01:16:41.698Z,28.37
2019-02-18T01:19:19.186Z,31.27
2019-02-18T01:21:56.663Z,27.47
2019-02-18T01:24:34.160Z,30.37
2019-02-18T01:27:11.664Z,27.00
2019-02-18T01:29:49.140Z,30.00
2019-02-18T01:32:26.680Z,23.90
2019-02-18T01:35:07.681Z,24.73
2019-02-18T01:37:46.292Z,25.10
2019-02-18T01:40:22.671Z,26.27
2019-02-18T01:43:00.216Z,35.00
2019-02-18T01:45:37.785Z,28.80
2019-02-18T01:48:15.272Z,27.60
2019-02-18T01:50:52.764Z,28.33
2019-02-18T01:53:30.267Z,30.13
2019-02-18T01:56:21.932Z,28.33
2019-02-18T01:58:59.440Z,34.20
2019-02-18T02:01:36.930Z,32.57
2019-02-18T02:04:14.426Z,30.10
2019-02-18T02:06:55.334Z,28.20
2019-02-18T02:09:32.840Z,26.03
2019-02-18T02:12:10.344Z,32.70
2019-02-18T02:14:51.072Z,30.47
2019-02-18T02:17:28.600Z,29.87
2019-02-18T02:20:06.169Z,27.87
2019-02-18T02:22:43.659Z,28.53
2019-02-18T02:25:37.848Z,31.33
2019-02-18T02:28:15.363Z,28.73
2019-02-18T02:30:52.850Z,29.80
2019-02-18T02:33:30.346Z,28.47
2019-02-18T02:36:24.301Z,30.97
2019-02-18T02:39:01.817Z,28.90
2019-02-18T02:41:39.330Z,27.93
2019-02-18T02:44:16.841Z,33.53
2019-02-18T02:46:54.327Z,29.90
2019-02-18T02:49:31.850Z,30.73
2019-02-18T02:52:09.323Z,28.90
2019-02-18T02:54:47.709Z,32.57
2019-02-18T02:57:25.214Z,32.17
2019-02-18T03:00:02.724Z,32.73
2019-02-18T03:02:40.222Z,30.17
2019-02-18T03:05:17.810Z,27.50
2019-02-18T03:07:55.319Z,32.67
2019-02-18T03:10:32.805Z,30.50
2019-02-18T03:13:10.296Z,33.10
2019-02-18T03:15:47.877Z,32.07
2019-02-18T03:18:25.392Z,36.30
2019-02-18T03:21:02.878Z,31.97
2019-02-18T03:23:40.389Z,27.67
2019-02-18T03:26:27.579Z,29.40
2019-02-18T03:29:50.939Z,27.97
2019-02-18T03:32:28.596Z,30.00
2019-02-18T03:35:09.756Z,30.57
2019-02-18T03:37:47.271Z,30.60
2019-02-18T03:40:24.769Z,27.50
2019-02-18T03:43:02.257Z,28.43
2019-02-18T03:45:42.228Z,25.97
2019-02-18T03:48:20.157Z,28.70
2019-02-18T03:50:57.624Z,28.13
2019-02-18T03:53:43.946Z,27.73
2019-02-18T03:56:21.524Z,30.93
2019-02-18T03:58:59.031Z,32.00
2019-02-18T04:01:36.569Z,26.47
2019-02-18T04:04:17.205Z,27.90
2019-02-18T04:06:54.702Z,30.43
2019-02-18T04:09:32.209Z,23.77
2019-02-18T04:12:09.703Z,26.83
2019-02-18T04:14:57.007Z,28.70
2019-02-18T04:17:34.520Z,27.70
2019-02-18T04:20:12.006Z,30.50
2019-02-18T04:22:49.513Z,27.87
2019-02-18T04:25:30.139Z,27.40
2019-02-18T04:28:07.657Z,30.30
2019-02-18T04:30:45.133Z,27.17
2019-02-18T04:33:22.606Z,28.27
2019-02-18T04:36:03.576Z,28.67
2019-02-18T04:38:41.087Z,27.77
2019-02-18T04:41:18.587Z,28.60
2019-02-18T04:43:56.137Z,23.80
2019-02-18T04:46:33.605Z,28.37
2019-02-18T04:49:11.094Z,29.70
2019-02-18T04:51:48.576Z,24.80
2019-02-18T04:54:35.946Z,26.27
2019-02-18T04:57:13.431Z,24.47
2019-02-18T04:59:50.932Z,26.47
2019-02-18T05:02:28.425Z,31.57
2019-02-18T05:05:09.661Z,25.47
2019-02-18T05:07:47.148Z,27.27
2019-02-18T05:10:24.638Z,26.43
2019-02-18T05:13:02.120Z,26.47
2019-02-18T05:15:46.136Z,24.30
2019-02-18T05:18:23.621Z,25.27
2019-02-18T05:21:01.150Z,28.63
2019-02-18T05:23:38.647Z,27.10
2019-02-18T05:26:16.433Z,25.03
2019-02-18T05:28:53.937Z,36.53
2019-02-18T05:31:31.433Z,30.07
2019-02-18T05:34:18.606Z,25.80
2019-02-18T05:36:56.093Z,26.03
2019-02-18T05:39:33.591Z,27.90
2019-02-18T05:42:11.104Z,26.93
2019-02-18T05:44:52.277Z,27.67
2019-02-18T05:47:29.785Z,25.47
2019-02-18T05:50:07.345Z,23.40
2019-02-18T05:52:44.869Z,26.93
2019-02-18T05:55:32.696Z,24.30
2019-02-18T05:58:10.183Z,24.07
2019-02-18T06:00:47.702Z,29.17
2019-02-18T06:03:25.216Z,26.47
2019-02-18T06:06:02.763Z,22.00
2019-02-18T06:08:40.260Z,25.90
2019-02-18T06:11:17.770Z,25.57
2019-02-18T06:14:08.629Z,25.50
2019-02-18T06:16:46.108Z,24.07
2019-02-18T06:19:23.621Z,25.00
2019-02-18T06:22:01.120Z,26.30
2019-02-18T06:24:48.529Z,30.63
2019-02-18T06:27:26.023Z,25.10
2019-02-18T06:30:03.533Z,31.27
2019-02-18T06:32:41.101Z,25.03
2019-02-18T06:35:18.697Z,28.27
2019-02-18T06:37:56.183Z,24.70
2019-02-18T06:40:33.691Z,28.93
2019-02-18T06:43:11.202Z,28.93
2019-02-18T06:46:21.795Z,24.83
2019-02-18T06:49:10.599Z,23.50
2019-02-18T06:51:48.099Z,28.37
2019-02-18T06:54:28.816Z,29.90
2019-02-18T06:57:31.186Z,31.10
2019-02-18T07:00:24.264Z,24.53
2019-02-18T07:03:36.660Z,26.00
2019-02-18T07:06:21.420Z,24.13
2019-02-18T07:09:08.930Z,26.93
2019-02-18T07:11:57.809Z,23.53
2019-02-18T07:14:35.432Z,25.10
2019-02-18T07:17:12.946Z,33.77
2019-02-18T07:19:50.462Z,27.87
2019-02-18T07:22:27.958Z,25.30
2019-02-18T07:25:13.022Z,27.87
2019-02-18T07:27:50.600Z,25.13
2019-02-18T07:30:28.129Z,24.80
2019-02-18T07:33:05.619Z,29.03
2019-02-18T07:35:43.133Z,25.93
2019-02-18T07:38:20.629Z,23.70
2019-02-18T07:40:58.178Z,24.60
2019-02-18T07:43:39.701Z,24.83
2019-02-18T07:46:17.217Z,26.17
2019-02-18T07:48:54.684Z,27.43
2019-02-18T07:51:32.196Z,27.93
2019-02-18T07:54:19.806Z,26.47
2019-02-18T07:56:57.328Z,26.23
2019-02-18T07:59:34.813Z,24.20
2019-02-18T08:02:12.340Z,25.10
2019-02-18T08:04:49.958Z,27.90
2019-02-18T08:07:27.474Z,29.80
2019-02-18T08:10:11.694Z,30.53
2019-02-18T08:12:42.485Z,30.17
2019-02-18T08:15:26.484Z,28.77
2019-02-18T08:18:03.977Z,29.60
2019-02-18T08:20:41.489Z,27.87
2019-02-18T08:23:25.824Z,24.20
2019-02-18T08:26:03.343Z,25.57
2019-02-18T08:28:40.814Z,24.53
2019-02-18T08:31:18.351Z,24.30
2019-02-18T08:34:02.053Z,25.40
2019-02-18T08:36:39.559Z,24.47
2019-02-18T08:39:17.038Z,25.13
2019-02-18T08:41:54.554Z,26.90
2019-02-18T08:44:34.135Z,28.23
2019-02-18T08:47:11.639Z,30.17
2019-02-18T08:49:49.138Z,27.43
2019-02-18T08:52:26.675Z,24.73
2019-02-18T08:55:15.542Z,26.77
2019-02-18T08:57:53.072Z,24.40
2019-02-18T09:00:30.532Z,25.60
2019-02-18T09:03:17.986Z,21.83
2019-02-18T09:05:55.485Z,28.13
2019-02-18T09:08:32.958Z,25.20
2019-02-18T09:11:10.480Z,25.37
2019-02-18T09:13:48.044Z,23.90
2019-02-18T09:16:25.574Z,24.77
2019-02-18T09:19:03.053Z,27.80
2019-02-18T09:21:40.618Z,24.80
2019-02-18T09:24:32.027Z,26.23
2019-02-18T09:27:09.561Z,29.07
2019-02-18T09:29:47.088Z,29.90
2019-02-18T09:32:24.607Z,26.73
2019-02-18T09:35:02.394Z,25.63
2019-02-18T09:37:39.713Z,29.47
2019-02-18T09:40:17.234Z,22.80
2019-02-18T09:43:10.982Z,25.93
2019-02-18T09:45:48.497Z,23.33
2019-02-18T09:48:25.978Z,20.60
2019-02-18T09:51:03.485Z,26.33
2019-02-18T09:53:44.086Z,23.50
2019-02-18T09:56:21.600Z,22.27
2019-02-18T09:58:59.077Z,25.10
2019-02-18T10:01:36.590Z,24.30
2019-02-18T10:04:14.154Z,23.40
2019-02-18T10:06:51.667Z,23.77
2019-02-18T10:09:29.134Z,23.07
2019-02-18T10:12:06.649Z,23.77
2019-02-18T10:14:44.249Z,25.07
2019-02-18T10:17:21.747Z,23.97
2019-02-18T10:19:59.260Z,21.50
2019-02-18T10:22:36.759Z,23.87
2019-02-18T10:25:14.324Z,27.10
2019-02-18T10:27:51.839Z,18.77
2019-02-18T10:30:29.351Z,24.07
2019-02-18T10:33:11.126Z,24.77
2019-02-18T10:35:48.614Z,24.80
2019-02-18T10:38:26.169Z,27.13
2019-02-18T10:41:06.923Z,25.20
2019-02-18T10:43:57.411Z,25.43
2019-02-18T10:46:34.927Z,25.93
2019-02-18T10:49:19.829Z,27.50
2019-02-18T10:51:49.891Z,26.43
2019-02-18T10:54:27.497Z,29.00
2019-02-18T10:57:04.995Z,26.83
2019-02-18T10:59:42.474Z,30.03
2019-02-18T11:02:19.976Z,26.70
2019-02-18T11:04:57.460Z,29.23
2019-02-18T11:07:34.963Z,29.83
2019-02-18T11:10:15.198Z,32.33
2019-02-18T11:12:52.826Z,31.40
2019-02-18T11:15:30.342Z,31.77
2019-02-18T11:18:07.872Z,32.53
2019-02-18T11:20:45.353Z,33.60
2019-02-18T11:23:47.789Z,40.47
2019-02-18T11:26:25.260Z,31.77
2019-02-18T11:29:02.786Z,33.70
2019-02-18T11:31:40.309Z,35.13
2019-02-18T11:34:36.389Z,32.20
2019-02-18T11:37:13.957Z,35.80
2019-02-18T11:39:51.415Z,33.53
2019-02-18T11:42:29.997Z,32.37
2019-02-18T11:45:07.738Z,31.60
2019-02-18T11:47:45.233Z,32.93
2019-02-18T11:50:22.707Z,29.93
2019-02-18T11:53:10.274Z,33.83
2019-02-18T11:55:47.786Z,30.83
2019-02-18T11:58:25.330Z,35.37
2019-02-18T12:01:02.856Z,38.23
2019-02-18T12:03:40.454Z,34.70
2019-02-18T12:06:17.929Z,33.73
2019-02-18T12:08:55.462Z,29.40
2019-02-18T12:11:37.805Z,33.07
2019-02-18T12:14:13.631Z,31.20
2019-02-18T12:16:51.149Z,33.97
2019-02-18T12:19:28.654Z,35.97
2019-02-18T12:22:06.126Z,37.90
2019-02-18T12:24:43.670Z,39.63
2019-02-18T12:27:21.201Z,37.20
2019-02-18T12:29:58.687Z,36.50
2019-02-18T12:32:38.351Z,34.27
2019-02-18T12:35:15.859Z,34.43
2019-02-18T12:37:55.557Z,33.23
2019-02-18T12:40:30.885Z,35.77
2019-02-18T12:43:21.018Z,32.80
2019-02-18T12:45:58.507Z,31.70
2019-02-18T12:48:35.999Z,36.10
2019-02-18T12:51:13.486Z,35.10
2019-02-18T12:53:51.126Z,37.10
2019-02-18T12:56:28.615Z,34.67
2019-02-18T12:59:06.122Z,32.43
2019-02-18T13:01:43.612Z,35.43
2019-02-18T13:04:37.975Z,34.63
2019-02-18T13:07:15.476Z,27.70
2019-02-18T13:09:52.952Z,30.23
2019-02-18T13:12:30.538Z,27.00
2019-02-18T13:15:09.232Z,29.97
2019-02-18T13:17:46.728Z,27.97
2019-02-18T13:20:24.206Z,29.97
2019-02-18T13:23:08.235Z,27.00
2019-02-18T13:25:47.602Z,29.43
2019-02-18T13:28:23.235Z,31.10
2019-02-18T13:31:00.729Z,31.17
2019-02-18T13:33:51.398Z,28.97
2019-02-18T13:36:28.878Z,26.30
2019-02-18T13:39:07.066Z,26.60
2019-02-18T13:41:44.566Z,24.37
2019-02-18T13:44:22.070Z,25.93
2019-02-18T13:46:59.562Z,25.53
2019-02-18T13:49:37.060Z,21.03
2019-02-18T13:52:15.609Z,24.30
2019-02-18T13:54:53.125Z,26.57
2019-02-18T13:57:30.637Z,23.97
2019-02-18T14:00:10.623Z,24.93
2019-02-18T14:02:54.411Z,22.53
2019-02-18T14:05:31.908Z,24.53
2019-02-18T14:08:09.453Z,22.33
2019-02-18T14:10:46.972Z,19.90
2019-02-18T14:13:24.615Z,22.53
2019-02-18T14:16:02.086Z,20.20
2019-02-18T14:18:39.640Z,20.57
2019-02-18T14:21:17.124Z,20.20
2019-02-18T14:23:55.688Z,19.17
2019-02-18T14:26:33.181Z,20.70
2019-02-18T14:29:10.689Z,20.20
2019-02-18T14:31:54.918Z,18.93
2019-02-18T14:34:32.432Z,19.80
2019-02-18T14:37:09.898Z,18.90
2019-02-18T14:39:47.425Z,17.50
2019-02-18T14:42:25.986Z,17.50
2019-02-18T14:45:03.507Z,18.13
2019-02-18T14:47:43.536Z,19.50
2019-02-18T14:50:21.883Z,16.03
2019-02-18T14:53:17.697Z,17.57
2019-02-18T14:55:55.174Z,15.47
2019-02-18T14:58:32.690Z,16.90
2019-02-18T15:01:10.174Z,14.37
2019-02-18T15:03:47.765Z,16.70
2019-02-18T15:06:25.246Z,16.83
2019-02-18T15:09:02.750Z,16.67
2019-02-18T15:11:40.296Z,17.20
2019-02-18T15:14:17.799Z,17.13
2019-02-18T15:16:55.296Z,14.73
2019-02-18T15:19:32.801Z,14.30
2019-02-18T15:22:10.385Z,14.63
2019-02-18T15:24:47.872Z,15.00
2019-02-18T15:27:25.358Z,14.00
2019-02-18T15:30:02.856Z,12.93
2019-02-18T15:32:40.441Z,19.47
2019-02-18T15:35:17.965Z,15.63
2019-02-18T15:37:55.450Z,15.03
2019-02-18T15:40:33.019Z,16.40
2019-02-18T15:43:10.633Z,14.40
2019-02-18T15:45:48.141Z,20.60
2019-02-18T15:48:25.664Z,15.40
2019-02-18T15:51:03.196Z,16.40
2019-02-18T15:53:40.818Z,17.20
2019-02-18T15:56:18.320Z,14.80
2019-02-18T15:58:55.830Z,13.80
2019-02-18T16:01:38.591Z,18.13
2019-02-18T16:04:16.120Z,14.37
2019-02-18T16:06:53.793Z,16.53
2019-02-18T16:09:31.503Z,24.70
2019-02-18T16:12:10.077Z,20.20
2019-02-18T16:14:47.585Z,17.50
2019-02-18T16:17:25.119Z,15.83
2019-02-18T16:20:02.631Z,17.27
2019-02-18T16:22:53.466Z,15.73
2019-02-18T16:25:30.963Z,16.33
2019-02-18T16:28:08.482Z,17.13
2019-02-18T16:30:46.002Z,17.73
2019-02-18T16:33:24.542Z,16.40
2019-02-18T16:36:02.104Z,17.67
2019-02-18T16:38:39.599Z,19.53
2019-02-18T16:41:23.845Z,24.30
2019-02-18T16:44:01.415Z,20.63
2019-02-18T16:46:38.910Z,20.33
2019-02-18T16:49:16.425Z,18.13
2019-02-18T16:51:55.046Z,19.37
2019-02-18T16:54:32.513Z,22.17
2019-02-18T16:57:10.005Z,18.33
2019-02-18T16:59:47.529Z,19.57
2019-02-18T17:02:31.408Z,22.30
2019-02-18T17:05:09.068Z,20.97
2019-02-18T17:07:46.549Z,21.60
2019-02-18T17:10:24.063Z,22.10
2019-02-18T17:13:07.927Z,22.07
2019-02-18T17:15:39.272Z,23.37
2019-02-18T17:18:16.750Z,28.77
2019-02-18T17:20:54.288Z,23.77
2019-02-18T17:23:31.801Z,26.40
2019-02-18T17:26:09.317Z,21.77
2019-02-18T17:28:46.809Z,25.90
2019-02-18T17:31:37.749Z,26.30
2019-02-18T17:34:15.456Z,24.57
2019-02-18T17:36:52.957Z,28.87
2019-02-18T17:39:30.513Z,26.13
2019-02-18T17:42:08.142Z,25.30
2019-02-18T17:44:45.673Z,26.40
2019-02-18T17:47:23.170Z,26.57
2019-02-18T17:50:00.685Z,19.03
2019-02-18T17:52:38.286Z,24.10
2019-02-18T17:55:16.549Z,30.00
2019-02-18T17:57:54.053Z,26.20
2019-02-18T18:00:31.980Z,29.20
2019-02-18T18:03:23.951Z,30.40
2019-02-18T18:06:01.471Z,33.00
2019-02-18T18:08:38.997Z,37.33
2019-02-18T18:11:28.290Z,31.47
2019-02-18T18:14:05.821Z,29.30
2019-02-18T18:16:43.372Z,30.17
2019-02-18T18:19:20.967Z,36.47
2019-02-18T18:21:59.704Z,71.27
2019-02-18T18:24:37.411Z,61.97
2019-02-18T18:27:14.998Z,59.73
2019-02-18T18:29:52.654Z,45.13
2019-02-18T18:32:36.730Z,33.63
2019-02-18T18:35:14.773Z,30.47
2019-02-18T18:37:52.470Z,28.93
2019-02-18T18:40:30.098Z,23.83
2019-02-18T18:43:07.646Z,26.37
2019-02-18T18:45:45.208Z,29.60
2019-02-18T18:48:22.859Z,27.40
2019-02-18T18:51:01.760Z,27.03
2019-02-18T18:53:39.390Z,22.53
2019-02-18T18:56:16.893Z,24.77
2019-02-18T18:58:54.436Z,20.93
2019-02-18T19:02:16.695Z,25.13
2019-02-18T19:04:54.553Z,28.17
2019-02-18T19:07:32.115Z,26.67
2019-02-18T19:10:09.921Z,24.27
2019-02-18T19:12:48.565Z,28.17
2019-02-18T19:15:26.386Z,38.33
2019-02-18T19:18:03.919Z,32.77
2019-02-18T19:20:52.096Z,30.20
2019-02-18T19:23:29.678Z,28.63
2019-02-18T19:26:07.346Z,30.13
2019-02-18T19:28:46.520Z,30.77
2019-02-18T19:31:35.760Z,28.57
2019-02-18T19:34:13.370Z,29.40
2019-02-18T19:36:51.142Z,29.23
2019-02-18T19:39:28.709Z,25.07
2019-02-18T19:42:18.532Z,27.57
2019-02-18T19:44:56.097Z,27.87
2019-02-18T19:47:33.780Z,24.40
2019-02-18T19:50:11.408Z,24.70
2019-02-18T19:52:49.166Z,33.63
2019-02-18T19:55:26.979Z,35.97
2019-02-18T19:58:04.819Z,34.50
2019-02-18T20:00:46.663Z,30.73
2019-02-18T20:03:24.180Z,28.40
2019-02-18T20:06:01.693Z,22.93
2019-02-18T20:08:39.207Z,24.53
2019-02-18T20:12:06.886Z,23.27
2019-02-18T20:14:44.451Z,21.60
2019-02-18T20:17:22.016Z,22.50
2019-02-18T20:19:59.892Z,21.23
2019-02-18T20:22:41.252Z,21.33
2019-02-18T20:25:18.989Z,19.77
2019-02-18T20:27:56.583Z,22.30
2019-02-18T20:30:34.266Z,19.33
2019-02-18T20:33:11.868Z,23.37
2019-02-18T20:35:49.442Z,17.27
2019-02-18T20:38:27.068Z,19.40
2019-02-18T20:41:25.757Z,25.67
2019-02-18T20:44:07.578Z,21.47
2019-02-18T20:46:40.794Z,21.73
2019-02-18T20:49:18.278Z,21.13
2019-02-18T20:51:55.815Z,17.53
2019-02-18T20:54:34.060Z,20.53
2019-02-18T20:57:12.340Z,19.90
2019-02-18T20:59:50.830Z,19.43
2019-02-18T21:02:30.505Z,15.70
2019-02-18T21:05:08.915Z,15.17
2019-02-18T21:07:47.317Z,16.63
2019-02-18T21:10:25.975Z,17.27
2019-02-18T21:13:04.867Z,19.97
2019-02-18T21:15:43.259Z,20.80
2019-02-18T21:18:21.907Z,22.47
2019-02-18T21:21:00.735Z,21.57
2019-02-18T21:23:38.216Z,21.70
2019-02-18T21:26:15.849Z,21.60
2019-02-18T21:28:53.373Z,20.73
2019-02-18T21:31:31.027Z,20.70
2019-02-18T21:34:08.473Z,16.23
2019-02-18T21:36:45.964Z,19.20
2019-02-18T21:39:24.798Z,16.13
2019-02-18T21:42:04.629Z,20.60
2019-02-18T21:44:42.113Z,19.13
2019-02-18T21:47:19.630Z,16.77
2019-02-18T21:50:03.442Z,18.33
2019-02-18T21:52:40.965Z,19.03
2019-02-18T21:55:18.985Z,17.63
2019-02-18T21:57:56.486Z,15.73
2019-02-18T22:00:40.870Z,18.30
2019-02-18T22:03:18.387Z,21.57
2019-02-18T22:05:55.864Z,18.27
2019-02-18T22:08:33.373Z,18.70
2019-02-18T22:11:10.939Z,20.60
2019-02-18T22:13:48.443Z,22.17
2019-02-18T22:16:25.966Z,23.07
2019-02-18T22:19:03.460Z,21.53
2019-02-18T22:21:44.228Z,22.37
2019-02-18T22:24:21.714Z,20.60
2019-02-18T22:26:59.223Z,20.40
2019-02-18T22:29:36.735Z,19.60
2019-02-18T22:32:14.251Z,16.30
2019-02-18T22:34:51.740Z,18.73
2019-02-18T22:37:29.260Z,22.60
2019-02-18T22:40:07.296Z,20.00
2019-02-18T22:42:44.799Z,20.93
2019-02-18T22:45:22.284Z,21.33
2019-02-18T22:47:59.799Z,21.83
2019-02-18T22:50:58.730Z,22.57
2019-02-18T22:53:36.234Z,20.00
2019-02-18T22:56:13.711Z,20.30
2019-02-18T22:58:51.198Z,23.67
2019-02-18T23:01:28.774Z,22.13
2019-02-18T23:04:06.277Z,21.03
2019-02-18T23:06:43.769Z,24.77
2019-02-18T23:09:21.267Z,21.30
2019-02-18T23:11:58.795Z,20.47
2019-02-18T23:14:36.282Z,22.73
2019-02-18T23:17:13.773Z,21.90
2019-02-18T23:19:54.498Z,21.77
2019-02-18T23:22:32.006Z,22.80
2019-02-18T23:25:09.481Z,17.77
2019-02-18T23:27:47.005Z,21.27
2019-02-18T23:30:27.837Z,17.93
2019-02-18T23:33:05.351Z,21.27
2019-02-18T23:35:42.837Z,21.10
2019-02-18T23:38:20.351Z,20.67
2019-02-18T23:41:16.013Z,17.90
2019-02-18T23:43:53.511Z,21.63
2019-02-18T23:46:31.005Z,18.37
2019-02-18T23:49:08.507Z,18.70
2019-02-18T23:51:46.097Z,23.30
2019-02-18T23:54:23.628Z,22.13
2019-02-18T23:57:01.118Z,18.27
2019-02-18T23:59:38.701Z,23.13
